首页
METAR-TAF:

METAR-TAF

机场 :

费尔班克斯国际机场

費爾班克斯, 阿拉斯加州, 美国

纬度: 64-48-14N, 经度: 147-52-34W, 海拔: 132米

当前天气观测

该预报发布于41分钟前的13:53 UTC
风速8节,风向东北
温度 -1°C
湿度 80%
气压 994 hPa
能見度: 16.1公里
散云层高于20000英尺

METAR: PAFA 231353Z 05008KT 10SM SCT200 M01/M04 A2936 RMK AO2 SLP949 T10061039 $

时间: 06:34 (14:34 UTC)

预报

该预报发布于2小时和54分钟前的11:40 UTC
预报有效从23日的 12点(UTC)到 24日的 18点(UTC)
风速3节,风向北转东北
能見度: 10公里
少量云层高于18000英尺
从 23日的 2100点(UTC)
风速12节,风向北转东北
能見度: 10公里
少量云层高于1500英尺
散云层高于2500英尺
阴天层高于5000英尺
小雨, 雪
从 24日的 0000点(UTC)
风速10节,风向北转东北,有时为15节阵风
能見度: 10公里
散云层高于2500英尺
多云层高于5000英尺
阴天层高于10000英尺
小雨
从 24日的 0800点(UTC)
风速5节,风向东北
能見度: 10公里
散云层高于3000英尺
多云层高于5000英尺
阴天层高于10000英尺

TAF: PAFA 231140Z 2312/2418 03003KT P6SM FEW180 FM232100 03012KT P6SM -RASN FEW015 SCT025 OVC050 FM240000 03010G15KT P6SM -RA SCT025 BKN050 OVC100 FM240800 04005KT P6SM SCT030 BKN050 OVC100

超过4000个机场的气象观测和天气预报(METAR&TAF报告)。

可查询的气象台以黄色和红色小点在地图上表示。

将鼠标移到小点上方,可查看气象台名称。

然后点击查看天气观测和预报。

如需切换地图:点击带黑十字的绿色按钮放大地图;点击带横线的绿色按钮缩小地图;或者点击绿色箭头查看邻近地区的地图。


METAR-TAF: